sensor_id;sensor_type;location;lat;lon;timestamp;temperature;humidity
20658;DHT22;10488;50.846;4.078;2023-11-19T00:00:31;14.10;99.90
20658;DHT22;10488;50.846;4.078;2023-11-19T00:02:57;14.00;99.90
20658;DHT22;10488;50.846;4.078;2023-11-19T00:05:23;14.00;99.90
20658;DHT22;10488;50.846;4.078;2023-11-19T00:07:48;14.00;99.90
20658;DHT22;10488;50.846;4.078;2023-11-19T00:10:15;14.00;99.90
20658;DHT22;10488;50.846;4.078;2023-11-19T00:12:49;14.00;99.90
20658;DHT22;10488;50.846;4.078;2023-11-19T00:15:17;13.90;99.90
20658;DHT22;10488;50.846;4.078;2023-11-19T00:17:47;14.10;99.90
20658;DHT22;10488;50.846;4.078;2023-11-19T00:20:14;14.00;99.90
20658;DHT22;10488;50.846;4.078;2023-11-19T00:22:40;14.00;99.90
20658;DHT22;10488;50.846;4.078;2023-11-19T00:25:07;14.10;99.90
20658;DHT22;10488;50.846;4.078;2023-11-19T00:27:34;14.00;99.90
20658;DHT22;10488;50.846;4.078;2023-11-19T00:30:00;13.90;99.90
20658;DHT22;10488;50.846;4.078;2023-11-19T00:32:26;13.80;99.90
20658;DHT22;10488;50.846;4.078;2023-11-19T00:34:51;13.80;99.90
20658;DHT22;10488;50.846;4.078;2023-11-19T00:37:17;13.80;99.90
20658;DHT22;10488;50.846;4.078;2023-11-19T00:39:43;13.70;99.90
20658;DHT22;10488;50.846;4.078;2023-11-19T00:42:09;13.90;99.90
20658;DHT22;10488;50.846;4.078;2023-11-19T00:44:39;13.80;99.90
20658;DHT22;10488;50.846;4.078;2023-11-19T00:47:05;13.80;99.90
20658;DHT22;10488;50.846;4.078;2023-11-19T00:49:31;13.80;99.90
20658;DHT22;10488;50.846;4.078;2023-11-19T00:52:00;13.80;99.90
20658;DHT22;10488;50.846;4.078;2023-11-19T00:54:27;14.00;99.90
20658;DHT22;10488;50.846;4.078;2023-11-19T00:56:53;14.00;99.90
20658;DHT22;10488;50.846;4.078;2023-11-19T00:59:19;13.90;99.90
20658;DHT22;10488;50.846;4.078;2023-11-19T01:01:45;13.90;99.90
20658;DHT22;10488;50.846;4.078;2023-11-19T01:04:10;13.90;99.90
20658;DHT22;10488;50.846;4.078;2023-11-19T01:06:36;14.00;99.90
20658;DHT22;10488;50.846;4.078;2023-11-19T01:09:01;14.10;99.90
20658;DHT22;10488;50.846;4.078;2023-11-19T01:11:28;14.10;99.90
20658;DHT22;10488;50.846;4.078;2023-11-19T01:13:53;14.10;99.90
20658;DHT22;10488;50.846;4.078;2023-11-19T01:16:20;14.20;99.90
20658;DHT22;10488;50.846;4.078;2023-11-19T01:18:49;14.40;99.90
20658;DHT22;10488;50.846;4.078;2023-11-19T01:21:15;14.20;99.90
20658;DHT22;10488;50.846;4.078;2023-11-19T01:23:41;14.00;99.90
20658;DHT22;10488;50.846;4.078;2023-11-19T01:26:11;13.90;99.90
20658;DHT22;10488;50.846;4.078;2023-11-19T01:28:38;13.80;99.90
20658;DHT22;10488;50.846;4.078;2023-11-19T01:31:11;14.00;99.90
20658;DHT22;10488;50.846;4.078;2023-11-19T01:33:37;14.00;99.90
20658;DHT22;10488;50.846;4.078;2023-11-19T01:36:03;13.90;99.90
20658;DHT22;10488;50.846;4.078;2023-11-19T01:38:29;14.00;99.90
20658;DHT22;10488;50.846;4.078;2023-11-19T01:40:57;14.00;99.90
20658;DHT22;10488;50.846;4.078;2023-11-19T01:43:33;14.10;99.90
20658;DHT22;10488;50.846;4.078;2023-11-19T01:46:00;14.10;99.90
20658;DHT22;10488;50.846;4.078;2023-11-19T01:48:26;14.20;99.90
20658;DHT22;10488;50.846;4.078;2023-11-19T01:50:53;14.10;99.90
20658;DHT22;10488;50.846;4.078;2023-11-19T01:53:20;14.00;99.90
20658;DHT22;10488;50.846;4.078;2023-11-19T01:55:47;13.80;99.90
20658;DHT22;10488;50.846;4.078;2023-11-19T01:58:13;13.70;99.90
20658;DHT22;10488;50.846;4.078;2023-11-19T02:00:40;13.80;99.90
20658;DHT22;10488;50.846;4.078;2023-11-19T02:03:06;13.80;99.90
20658;DHT22;10488;50.846;4.078;2023-11-19T02:05:34;13.80;99.90
20658;DHT22;10488;50.846;4.078;2023-11-19T02:08:01;13.90;99.90
20658;DHT22;10488;50.846;4.078;2023-11-19T02:10:27;13.80;99.90
20658;DHT22;10488;50.846;4.078;2023-11-19T02:12:52;13.90;99.90
20658;DHT22;10488;50.846;4.078;2023-11-19T02:15:18;13.80;99.90
20658;DHT22;10488;50.846;4.078;2023-11-19T02:17:44;13.60;99.90
20658;DHT22;10488;50.846;4.078;2023-11-19T02:20:10;13.50;99.90
20658;DHT22;10488;50.846;4.078;2023-11-19T02:22:40;13.50;99.90
20658;DHT22;10488;50.846;4.078;2023-11-19T02:25:17;13.60;99.90
20658;DHT22;10488;50.846;4.078;2023-11-19T02:30:16;13.70;99.90
20658;DHT22;10488;50.846;4.078;2023-11-19T02:32:42;13.80;99.90
20658;DHT22;10488;50.846;4.078;2023-11-19T02:35:08;13.80;99.90
20658;DHT22;10488;50.846;4.078;2023-11-19T02:37:34;13.70;99.90
20658;DHT22;10488;50.846;4.078;2023-11-19T02:40:00;13.60;99.90
20658;DHT22;10488;50.846;4.078;2023-11-19T02:42:28;13.60;99.90
20658;DHT22;10488;50.846;4.078;2023-11-19T02:44:54;13.50;99.90
20658;DHT22;10488;50.846;4.078;2023-11-19T02:47:20;13.60;99.90
20658;DHT22;10488;50.846;4.078;2023-11-19T02:49:47;13.50;99.90
20658;DHT22;10488;50.846;4.078;2023-11-19T02:52:13;13.40;99.90
20658;DHT22;10488;50.846;4.078;2023-11-19T02:54:40;13.30;99.90
20658;DHT22;10488;50.846;4.078;2023-11-19T02:57:07;13.30;99.90
20658;DHT22;10488;50.846;4.078;2023-11-19T02:59:39;13.10;99.90
20658;DHT22;10488;50.846;4.078;2023-11-19T03:02:07;13.10;99.90
20658;DHT22;10488;50.846;4.078;2023-11-19T03:04:39;13.00;99.90
20658;DHT22;10488;50.846;4.078;2023-11-19T03:07:06;13.10;99.90
20658;DHT22;10488;50.846;4.078;2023-11-19T03:09:33;12.90;99.90
20658;DHT22;10488;50.846;4.078;2023-11-19T03:12:00;13.00;99.90
20658;DHT22;10488;50.846;4.078;2023-11-19T03:14:25;12.90;99.90
20658;DHT22;10488;50.846;4.078;2023-11-19T03:16:51;12.80;99.90
20658;DHT22;10488;50.846;4.078;2023-11-19T03:19:17;12.80;99.90
20658;DHT22;10488;50.846;4.078;2023-11-19T03:21:43;12.70;99.90
20658;DHT22;10488;50.846;4.078;2023-11-19T03:24:12;12.70;99.90
20658;DHT22;10488;50.846;4.078;2023-11-19T03:26:38;12.70;99.90
20658;DHT22;10488;50.846;4.078;2023-11-19T03:29:04;12.60;99.90
20658;DHT22;10488;50.846;4.078;2023-11-19T03:31:30;12.50;99.90
20658;DHT22;10488;50.846;4.078;2023-11-19T03:33:56;12.60;99.90
20658;DHT22;10488;50.846;4.078;2023-11-19T03:36:21;12.50;99.90
20658;DHT22;10488;50.846;4.078;2023-11-19T03:38:48;12.40;99.90
20658;DHT22;10488;50.846;4.078;2023-11-19T03:41:14;12.40;99.90
20658;DHT22;10488;50.846;4.078;2023-11-19T03:43:40;12.40;99.90
20658;DHT22;10488;50.846;4.078;2023-11-19T03:46:19;12.50;99.90
20658;DHT22;10488;50.846;4.078;2023-11-19T03:48:47;12.50;99.90
20658;DHT22;10488;50.846;4.078;2023-11-19T03:51:13;12.40;99.90
20658;DHT22;10488;50.846;4.078;2023-11-19T03:53:42;12.50;99.90
20658;DHT22;10488;50.846;4.078;2023-11-19T03:56:08;12.60;99.90
20658;DHT22;10488;50.846;4.078;2023-11-19T03:58:35;12.70;99.90
20658;DHT22;10488;50.846;4.078;2023-11-19T04:01:01;12.80;99.90
20658;DHT22;10488;50.846;4.078;2023-11-19T04:03:28;12.90;99.90
20658;DHT22;10488;50.846;4.078;2023-11-19T04:05:53;12.80;99.90
20658;DHT22;10488;50.846;4.078;2023-11-19T04:08:19;12.70;99.90
20658;DHT22;10488;50.846;4.078;2023-11-19T04:10:45;12.70;99.90
20658;DHT22;10488;50.846;4.078;2023-11-19T04:13:10;12.60;99.90
20658;DHT22;10488;50.846;4.078;2023-11-19T04:15:36;12.70;99.90
20658;DHT22;10488;50.846;4.078;2023-11-19T04:18:02;12.80;99.90
20658;DHT22;10488;50.846;4.078;2023-11-19T04:20:27;12.70;99.90
20658;DHT22;10488;50.846;4.078;2023-11-19T04:22:53;12.70;99.90
20658;DHT22;10488;50.846;4.078;2023-11-19T04:25:19;12.50;99.90
20658;DHT22;10488;50.846;4.078;2023-11-19T04:27:45;12.40;99.90
20658;DHT22;10488;50.846;4.078;2023-11-19T04:30:11;12.30;99.90
20658;DHT22;10488;50.846;4.078;2023-11-19T04:32:37;12.30;99.90
20658;DHT22;10488;50.846;4.078;2023-11-19T04:35:03;12.20;99.90
20658;DHT22;10488;50.846;4.078;2023-11-19T04:37:29;12.30;99.90
20658;DHT22;10488;50.846;4.078;2023-11-19T04:39:54;12.40;99.90
20658;DHT22;10488;50.846;4.078;2023-11-19T04:42:23;12.40;99.90
20658;DHT22;10488;50.846;4.078;2023-11-19T04:44:49;12.50;99.90
20658;DHT22;10488;50.846;4.078;2023-11-19T04:47:15;12.50;99.90
20658;DHT22;10488;50.846;4.078;2023-11-19T04:49:41;12.40;99.90
20658;DHT22;10488;50.846;4.078;2023-11-19T04:52:09;12.50;99.90
20658;DHT22;10488;50.846;4.078;2023-11-19T04:54:41;12.40;99.90
20658;DHT22;10488;50.846;4.078;2023-11-19T04:57:07;12.30;99.90
20658;DHT22;10488;50.846;4.078;2023-11-19T04:59:35;12.20;99.90
20658;DHT22;10488;50.846;4.078;2023-11-19T05:02:00;12.20;99.90
20658;DHT22;10488;50.846;4.078;2023-11-19T05:04:26;12.20;99.90
20658;DHT22;10488;50.846;4.078;2023-11-19T05:06:52;12.10;99.90
20658;DHT22;10488;50.846;4.078;2023-11-19T05:09:17;12.00;99.90
20658;DHT22;10488;50.846;4.078;2023-11-19T05:11:43;12.00;99.90
20658;DHT22;10488;50.846;4.078;2023-11-19T05:14:09;11.90;99.90
20658;DHT22;10488;50.846;4.078;2023-11-19T05:16:35;11.90;99.90
20658;DHT22;10488;50.846;4.078;2023-11-19T05:19:00;11.90;99.90
20658;DHT22;10488;50.846;4.078;2023-11-19T05:21:26;11.90;99.90
20658;DHT22;10488;50.846;4.078;2023-11-19T05:23:52;12.00;99.90
20658;DHT22;10488;50.846;4.078;2023-11-19T05:26:21;12.00;99.90
20658;DHT22;10488;50.846;4.078;2023-11-19T05:28:48;12.10;99.90
20658;DHT22;10488;50.846;4.078;2023-11-19T05:31:14;12.10;99.90
20658;DHT22;10488;50.846;4.078;2023-11-19T05:33:40;12.20;99.90
20658;DHT22;10488;50.846;4.078;2023-11-19T05:36:06;12.30;99.90
20658;DHT22;10488;50.846;4.078;2023-11-19T05:38:36;12.60;99.90
20658;DHT22;10488;50.846;4.078;2023-11-19T05:41:02;12.60;99.90
20658;DHT22;10488;50.846;4.078;2023-11-19T05:43:28;12.50;99.90
20658;DHT22;10488;50.846;4.078;2023-11-19T05:45:54;12.40;99.90
20658;DHT22;10488;50.846;4.078;2023-11-19T05:48:19;12.30;99.90
20658;DHT22;10488;50.846;4.078;2023-11-19T05:50:45;12.30;99.90
20658;DHT22;10488;50.846;4.078;2023-11-19T05:53:11;12.20;99.90
20658;DHT22;10488;50.846;4.078;2023-11-19T05:55:40;12.10;99.90
20658;DHT22;10488;50.846;4.078;2023-11-19T05:58:12;12.10;99.90
20658;DHT22;10488;50.846;4.078;2023-11-19T06:00:38;12.10;99.90
20658;DHT22;10488;50.846;4.078;2023-11-19T06:03:07;11.90;99.90
20658;DHT22;10488;50.846;4.078;2023-11-19T06:05:33;11.70;99.90
20658;DHT22;10488;50.846;4.078;2023-11-19T06:07:58;11.70;99.90
20658;DHT22;10488;50.846;4.078;2023-11-19T06:10:24;11.60;99.90
20658;DHT22;10488;50.846;4.078;2023-11-19T06:12:59;11.60;99.90
20658;DHT22;10488;50.846;4.078;2023-11-19T06:15:28;11.50;99.90
20658;DHT22;10488;50.846;4.078;2023-11-19T06:17:54;11.60;99.90
20658;DHT22;10488;50.846;4.078;2023-11-19T06:20:26;11.50;99.90
20658;DHT22;10488;50.846;4.078;2023-11-19T06:22:54;11.40;99.90
20658;DHT22;10488;50.846;4.078;2023-11-19T06:25:20;11.30;99.90
20658;DHT22;10488;50.846;4.078;2023-11-19T06:27:46;11.30;99.90
20658;DHT22;10488;50.846;4.078;2023-11-19T06:30:11;11.40;99.90
20658;DHT22;10488;50.846;4.078;2023-11-19T06:32:37;11.40;99.90
20658;DHT22;10488;50.846;4.078;2023-11-19T06:35:03;11.40;99.90
20658;DHT22;10488;50.846;4.078;2023-11-19T06:37:30;11.40;99.90
20658;DHT22;10488;50.846;4.078;2023-11-19T06:39:56;11.40;99.90
20658;DHT22;10488;50.846;4.078;2023-11-19T06:42:21;11.40;99.90
20658;DHT22;10488;50.846;4.078;2023-11-19T06:44:47;11.30;99.90
20658;DHT22;10488;50.846;4.078;2023-11-19T06:47:13;11.30;99.90
20658;DHT22;10488;50.846;4.078;2023-11-19T06:49:38;11.30;99.90
20658;DHT22;10488;50.846;4.078;2023-11-19T06:52:04;11.40;99.90
20658;DHT22;10488;50.846;4.078;2023-11-19T06:54:30;11.30;99.90
20658;DHT22;10488;50.846;4.078;2023-11-19T06:56:56;11.40;99.90
20658;DHT22;10488;50.846;4.078;2023-11-19T06:59:23;11.40;99.90
20658;DHT22;10488;50.846;4.078;2023-11-19T07:01:48;11.50;99.90
20658;DHT22;10488;50.846;4.078;2023-11-19T07:04:14;11.40;99.90
20658;DHT22;10488;50.846;4.078;2023-11-19T07:06:40;11.40;99.90
20658;DHT22;10488;50.846;4.078;2023-11-19T07:09:06;11.40;99.90
20658;DHT22;10488;50.846;4.078;2023-11-19T07:11:41;11.50;99.90
20658;DHT22;10488;50.846;4.078;2023-11-19T07:14:08;11.50;99.90
20658;DHT22;10488;50.846;4.078;2023-11-19T07:16:34;11.50;99.90
20658;DHT22;10488;50.846;4.078;2023-11-19T07:19:00;11.40;99.90
20658;DHT22;10488;50.846;4.078;2023-11-19T07:21:27;11.30;99.90
20658;DHT22;10488;50.846;4.078;2023-11-19T07:23:56;11.30;99.90
20658;DHT22;10488;50.846;4.078;2023-11-19T07:26:23;11.30;99.90
20658;DHT22;10488;50.846;4.078;2023-11-19T07:28:49;11.20;99.90
20658;DHT22;10488;50.846;4.078;2023-11-19T07:31:16;11.20;99.90
20658;DHT22;10488;50.846;4.078;2023-11-19T07:33:45;11.30;99.90
20658;DHT22;10488;50.846;4.078;2023-11-19T07:36:12;11.30;99.90
20658;DHT22;10488;50.846;4.078;2023-11-19T07:38:37;11.30;99.90
20658;DHT22;10488;50.846;4.078;2023-11-19T07:41:07;11.20;99.90
20658;DHT22;10488;50.846;4.078;2023-11-19T07:43:34;11.20;99.90
20658;DHT22;10488;50.846;4.078;2023-11-19T07:46:00;11.30;99.90
20658;DHT22;10488;50.846;4.078;2023-11-19T07:48:26;11.40;99.90
20658;DHT22;10488;50.846;4.078;2023-11-19T07:50:52;11.50;99.90
20658;DHT22;10488;50.846;4.078;2023-11-19T07:53:18;11.50;99.90
20658;DHT22;10488;50.846;4.078;2023-11-19T07:55:44;11.50;99.90
20658;DHT22;10488;50.846;4.078;2023-11-19T07:58:10;11.50;99.90
20658;DHT22;10488;50.846;4.078;2023-11-19T08:00:36;11.50;99.90
20658;DHT22;10488;50.846;4.078;2023-11-19T08:03:03;11.60;99.90
20658;DHT22;10488;50.846;4.078;2023-11-19T08:05:28;11.70;99.90
20658;DHT22;10488;50.846;4.078;2023-11-19T08:07:54;11.60;99.90
20658;DHT22;10488;50.846;4.078;2023-11-19T08:10:20;11.70;99.90
20658;DHT22;10488;50.846;4.078;2023-11-19T08:12:45;11.70;99.90
20658;DHT22;10488;50.846;4.078;2023-11-19T08:15:11;11.70;99.90
20658;DHT22;10488;50.846;4.078;2023-11-19T08:17:37;11.70;99.90
20658;DHT22;10488;50.846;4.078;2023-11-19T08:20:03;11.90;99.90
20658;DHT22;10488;50.846;4.078;2023-11-19T08:22:30;11.90;99.90
20658;DHT22;10488;50.846;4.078;2023-11-19T08:24:56;12.00;99.90
20658;DHT22;10488;50.846;4.078;2023-11-19T08:27:22;12.00;99.90
20658;DHT22;10488;50.846;4.078;2023-11-19T08:29:55;12.00;99.90
20658;DHT22;10488;50.846;4.078;2023-11-19T08:32:27;12.20;99.90
20658;DHT22;10488;50.846;4.078;2023-11-19T08:34:53;12.00;99.90
20658;DHT22;10488;50.846;4.078;2023-11-19T08:37:19;12.00;99.90
20658;DHT22;10488;50.846;4.078;2023-11-19T08:39:50;12.10;99.90
20658;DHT22;10488;50.846;4.078;2023-11-19T08:42:16;12.10;99.90
20658;DHT22;10488;50.846;4.078;2023-11-19T08:44:43;12.10;99.90
20658;DHT22;10488;50.846;4.078;2023-11-19T08:47:10;12.20;99.90
20658;DHT22;10488;50.846;4.078;2023-11-19T08:49:36;12.20;99.90
20658;DHT22;10488;50.846;4.078;2023-11-19T08:52:02;12.20;99.90
20658;DHT22;10488;50.846;4.078;2023-11-19T08:54:27;12.30;99.90
20658;DHT22;10488;50.846;4.078;2023-11-19T08:56:53;12.30;99.90
20658;DHT22;10488;50.846;4.078;2023-11-19T08:59:19;12.30;99.90
20658;DHT22;10488;50.846;4.078;2023-11-19T09:01:44;12.40;99.90
20658;DHT22;10488;50.846;4.078;2023-11-19T09:04:10;12.40;99.90
20658;DHT22;10488;50.846;4.078;2023-11-19T09:06:36;12.40;99.90
20658;DHT22;10488;50.846;4.078;2023-11-19T09:09:02;12.30;99.90
20658;DHT22;10488;50.846;4.078;2023-11-19T09:11:31;12.30;99.90
20658;DHT22;10488;50.846;4.078;2023-11-19T09:13:57;12.30;99.90
20658;DHT22;10488;50.846;4.078;2023-11-19T09:16:23;12.40;99.90
20658;DHT22;10488;50.846;4.078;2023-11-19T09:18:49;12.50;99.90
20658;DHT22;10488;50.846;4.078;2023-11-19T09:21:15;12.30;99.90
20658;DHT22;10488;50.846;4.078;2023-11-19T09:23:41;12.20;99.90
20658;DHT22;10488;50.846;4.078;2023-11-19T09:26:08;12.20;99.90
20658;DHT22;10488;50.846;4.078;2023-11-19T09:28:35;12.30;99.90
20658;DHT22;10488;50.846;4.078;2023-11-19T09:31:01;12.40;99.90
20658;DHT22;10488;50.846;4.078;2023-11-19T09:33:30;12.30;99.90
20658;DHT22;10488;50.846;4.078;2023-11-19T09:35:56;12.50;99.90
20658;DHT22;10488;50.846;4.078;2023-11-19T09:38:21;12.60;99.90
20658;DHT22;10488;50.846;4.078;2023-11-19T09:40:47;12.70;99.90
20658;DHT22;10488;50.846;4.078;2023-11-19T09:43:15;12.80;99.90
20658;DHT22;10488;50.846;4.078;2023-11-19T09:45:50;12.90;99.90
20658;DHT22;10488;50.846;4.078;2023-11-19T09:48:19;12.80;99.90
20658;DHT22;10488;50.846;4.078;2023-11-19T09:50:48;12.80;99.90
20658;DHT22;10488;50.846;4.078;2023-11-19T09:53:15;12.80;99.90
20658;DHT22;10488;50.846;4.078;2023-11-19T09:55:44;12.90;99.90
20658;DHT22;10488;50.846;4.078;2023-11-19T09:58:12;12.80;99.90
20658;DHT22;10488;50.846;4.078;2023-11-19T10:00:40;12.90;99.90
20658;DHT22;10488;50.846;4.078;2023-11-19T10:03:07;13.10;99.90
20658;DHT22;10488;50.846;4.078;2023-11-19T10:05:34;13.10;99.90
20658;DHT22;10488;50.846;4.078;2023-11-19T10:08:02;13.30;99.90
20658;DHT22;10488;50.846;4.078;2023-11-19T10:10:28;13.50;99.90
20658;DHT22;10488;50.846;4.078;2023-11-19T10:12:55;13.40;99.90
20658;DHT22;10488;50.846;4.078;2023-11-19T10:15:21;13.40;99.90
20658;DHT22;10488;50.846;4.078;2023-11-19T10:17:56;13.50;99.90
20658;DHT22;10488;50.846;4.078;2023-11-19T10:20:22;13.70;99.90
20658;DHT22;10488;50.846;4.078;2023-11-19T10:22:50;13.90;99.90
20658;DHT22;10488;50.846;4.078;2023-11-19T10:25:27;14.00;99.90
20658;DHT22;10488;50.846;4.078;2023-11-19T10:27:54;14.10;99.90
20658;DHT22;10488;50.846;4.078;2023-11-19T10:30:24;14.00;99.90
20658;DHT22;10488;50.846;4.078;2023-11-19T10:33:13;14.10;99.90
20658;DHT22;10488;50.846;4.078;2023-11-19T10:35:55;14.00;99.90
20658;DHT22;10488;50.846;4.078;2023-11-19T10:38:25;14.00;99.90
20658;DHT22;10488;50.846;4.078;2023-11-19T10:40:52;13.90;99.90
20658;DHT22;10488;50.846;4.078;2023-11-19T10:43:19;13.70;99.90
20658;DHT22;10488;50.846;4.078;2023-11-19T10:45:44;13.70;99.90
20658;DHT22;10488;50.846;4.078;2023-11-19T10:48:11;13.60;99.90
20658;DHT22;10488;50.846;4.078;2023-11-19T10:50:39;13.50;99.90
20658;DHT22;10488;50.846;4.078;2023-11-19T10:53:06;13.50;99.90
20658;DHT22;10488;50.846;4.078;2023-11-19T10:55:34;13.50;99.90
20658;DHT22;10488;50.846;4.078;2023-11-19T10:58:04;13.60;99.90
20658;DHT22;10488;50.846;4.078;2023-11-19T11:00:43;13.60;99.90
20658;DHT22;10488;50.846;4.078;2023-11-19T11:03:24;13.60;99.90
20658;DHT22;10488;50.846;4.078;2023-11-19T11:05:51;13.70;99.90
20658;DHT22;10488;50.846;4.078;2023-11-19T11:08:18;13.60;99.90
20658;DHT22;10488;50.846;4.078;2023-11-19T11:10:55;13.50;99.90
20658;DHT22;10488;50.846;4.078;2023-11-19T11:13:23;13.40;99.90
20658;DHT22;10488;50.846;4.078;2023-11-19T11:15:50;13.50;99.90
20658;DHT22;10488;50.846;4.078;2023-11-19T11:18:16;13.60;99.90
20658;DHT22;10488;50.846;4.078;2023-11-19T11:20:45;13.70;99.90
20658;DHT22;10488;50.846;4.078;2023-11-19T11:26:15;13.60;99.90
20658;DHT22;10488;50.846;4.078;2023-11-19T11:29:09;13.50;99.90
20658;DHT22;10488;50.846;4.078;2023-11-19T11:37:45;13.70;99.90
20658;DHT22;10488;50.846;4.078;2023-11-19T11:40:16;13.70;99.90
20658;DHT22;10488;50.846;4.078;2023-11-19T11:42:44;13.80;99.90
20658;DHT22;10488;50.846;4.078;2023-11-19T11:45:14;14.00;99.90
20658;DHT22;10488;50.846;4.078;2023-11-19T11:50:10;14.10;99.90
20658;DHT22;10488;50.846;4.078;2023-11-19T11:55:24;14.50;99.90
20658;DHT22;10488;50.846;4.078;2023-11-19T11:57:50;14.30;99.90
20658;DHT22;10488;50.846;4.078;2023-11-19T12:00:23;14.20;99.90
20658;DHT22;10488;50.846;4.078;2023-11-19T12:02:51;14.00;99.90
20658;DHT22;10488;50.846;4.078;2023-11-19T12:05:17;14.00;99.90
20658;DHT22;10488;50.846;4.078;2023-11-19T12:07:54;13.90;99.90
20658;DHT22;10488;50.846;4.078;2023-11-19T12:10:21;13.80;99.90
20658;DHT22;10488;50.846;4.078;2023-11-19T12:12:47;13.70;99.90
20658;DHT22;10488;50.846;4.078;2023-11-19T12:15:13;13.50;99.90
20658;DHT22;10488;50.846;4.078;2023-11-19T12:17:47;13.50;99.90
20658;DHT22;10488;50.846;4.078;2023-11-19T12:20:26;13.60;99.90
20658;DHT22;10488;50.846;4.078;2023-11-19T12:22:53;13.60;99.90
20658;DHT22;10488;50.846;4.078;2023-11-19T12:25:19;13.40;99.90
20658;DHT22;10488;50.846;4.078;2023-11-19T12:27:50;13.30;99.90
20658;DHT22;10488;50.846;4.078;2023-11-19T12:30:23;13.50;99.90
20658;DHT22;10488;50.846;4.078;2023-11-19T12:32:50;13.40;99.90
20658;DHT22;10488;50.846;4.078;2023-11-19T12:35:15;13.40;99.90
20658;DHT22;10488;50.846;4.078;2023-11-19T12:37:44;13.40;99.90
20658;DHT22;10488;50.846;4.078;2023-11-19T12:40:22;13.50;99.90
20658;DHT22;10488;50.846;4.078;2023-11-19T12:42:52;13.50;99.90
20658;DHT22;10488;50.846;4.078;2023-11-19T12:45:18;13.70;99.90
20658;DHT22;10488;50.846;4.078;2023-11-19T12:47:46;13.70;99.90
20658;DHT22;10488;50.846;4.078;2023-11-19T12:50:13;13.70;99.90
20658;DHT22;10488;50.846;4.078;2023-11-19T12:52:39;13.80;99.90
20658;DHT22;10488;50.846;4.078;2023-11-19T12:55:27;13.70;99.90
20658;DHT22;10488;50.846;4.078;2023-11-19T12:57:52;13.80;99.90
20658;DHT22;10488;50.846;4.078;2023-11-19T13:00:25;13.90;99.90
20658;DHT22;10488;50.846;4.078;2023-11-19T13:02:55;13.90;99.90
20658;DHT22;10488;50.846;4.078;2023-11-19T13:05:33;14.00;99.90
20658;DHT22;10488;50.846;4.078;2023-11-19T13:08:07;14.00;99.90
20658;DHT22;10488;50.846;4.078;2023-11-19T13:10:50;14.10;99.90
20658;DHT22;10488;50.846;4.078;2023-11-19T13:13:16;14.30;99.90
20658;DHT22;10488;50.846;4.078;2023-11-19T13:15:42;14.30;99.90
20658;DHT22;10488;50.846;4.078;2023-11-19T13:18:10;14.10;99.90
20658;DHT22;10488;50.846;4.078;2023-11-19T13:20:36;13.80;99.90
20658;DHT22;10488;50.846;4.078;2023-11-19T13:23:03;13.80;99.90
20658;DHT22;10488;50.846;4.078;2023-11-19T13:25:30;13.80;99.90
20658;DHT22;10488;50.846;4.078;2023-11-19T13:27:57;13.90;99.90
20658;DHT22;10488;50.846;4.078;2023-11-19T13:30:23;14.00;99.90
20658;DHT22;10488;50.846;4.078;2023-11-19T13:32:50;14.10;99.90
20658;DHT22;10488;50.846;4.078;2023-11-19T13:35:16;13.80;99.90
20658;DHT22;10488;50.846;4.078;2023-11-19T13:37:43;13.50;99.90
20658;DHT22;10488;50.846;4.078;2023-11-19T13:40:10;13.30;99.90
20658;DHT22;10488;50.846;4.078;2023-11-19T13:42:39;13.30;99.90
20658;DHT22;10488;50.846;4.078;2023-11-19T13:45:11;13.40;99.90
20658;DHT22;10488;50.846;4.078;2023-11-19T13:47:45;13.40;99.90
20658;DHT22;10488;50.846;4.078;2023-11-19T13:50:13;13.50;99.90
20658;DHT22;10488;50.846;4.078;2023-11-19T13:52:40;13.60;99.90
20658;DHT22;10488;50.846;4.078;2023-11-19T13:55:09;13.70;99.90
20658;DHT22;10488;50.846;4.078;2023-11-19T13:57:36;13.60;99.90
20658;DHT22;10488;50.846;4.078;2023-11-19T14:00:03;13.70;99.90
20658;DHT22;10488;50.846;4.078;2023-11-19T14:02:33;13.80;99.90
20658;DHT22;10488;50.846;4.078;2023-11-19T14:04:59;13.80;99.90
20658;DHT22;10488;50.846;4.078;2023-11-19T14:07:25;13.70;99.90
20658;DHT22;10488;50.846;4.078;2023-11-19T14:09:51;13.40;99.90
20658;DHT22;10488;50.846;4.078;2023-11-19T14:12:17;13.40;99.90
20658;DHT22;10488;50.846;4.078;2023-11-19T14:14:43;13.40;99.90
20658;DHT22;10488;50.846;4.078;2023-11-19T14:17:09;13.30;99.90
20658;DHT22;10488;50.846;4.078;2023-11-19T14:19:36;13.20;99.90
20658;DHT22;10488;50.846;4.078;2023-11-19T14:22:02;13.10;99.90
20658;DHT22;10488;50.846;4.078;2023-11-19T14:24:28;13.00;99.90
20658;DHT22;10488;50.846;4.078;2023-11-19T14:26:54;12.90;99.90
20658;DHT22;10488;50.846;4.078;2023-11-19T14:29:19;13.00;99.90
20658;DHT22;10488;50.846;4.078;2023-11-19T14:31:45;12.90;99.90
20658;DHT22;10488;50.846;4.078;2023-11-19T14:34:10;13.00;99.90
20658;DHT22;10488;50.846;4.078;2023-11-19T14:36:36;13.00;99.90
20658;DHT22;10488;50.846;4.078;2023-11-19T14:39:02;13.00;99.90
20658;DHT22;10488;50.846;4.078;2023-11-19T14:41:29;13.00;99.90
20658;DHT22;10488;50.846;4.078;2023-11-19T14:43:55;13.10;99.90
20658;DHT22;10488;50.846;4.078;2023-11-19T14:46:20;13.10;99.90
20658;DHT22;10488;50.846;4.078;2023-11-19T14:48:46;13.00;99.90
20658;DHT22;10488;50.846;4.078;2023-11-19T14:51:12;13.10;99.90
20658;DHT22;10488;50.846;4.078;2023-11-19T14:53:38;13.10;99.90
20658;DHT22;10488;50.846;4.078;2023-11-19T14:56:04;13.20;99.90
20658;DHT22;10488;50.846;4.078;2023-11-19T14:58:30;13.20;99.90
20658;DHT22;10488;50.846;4.078;2023-11-19T15:00:55;13.00;99.90
20658;DHT22;10488;50.846;4.078;2023-11-19T15:03:21;13.00;99.90
20658;DHT22;10488;50.846;4.078;2023-11-19T15:05:47;12.90;99.90
20658;DHT22;10488;50.846;4.078;2023-11-19T15:08:14;12.90;99.90
20658;DHT22;10488;50.846;4.078;2023-11-19T15:10:44;13.00;99.90
20658;DHT22;10488;50.846;4.078;2023-11-19T15:13:11;13.00;99.90
20658;DHT22;10488;50.846;4.078;2023-11-19T15:15:36;13.10;99.90
20658;DHT22;10488;50.846;4.078;2023-11-19T15:18:04;13.20;99.90
20658;DHT22;10488;50.846;4.078;2023-11-19T15:20:30;13.10;99.90
20658;DHT22;10488;50.846;4.078;2023-11-19T15:22:56;13.00;99.90
20658;DHT22;10488;50.846;4.078;2023-11-19T15:25:23;12.90;99.90
20658;DHT22;10488;50.846;4.078;2023-11-19T15:27:49;12.80;99.90
20658;DHT22;10488;50.846;4.078;2023-11-19T15:30:15;12.80;99.90
20658;DHT22;10488;50.846;4.078;2023-11-19T15:32:41;12.90;99.90
20658;DHT22;10488;50.846;4.078;2023-11-19T15:35:09;12.90;99.90
20658;DHT22;10488;50.846;4.078;2023-11-19T15:37:35;13.10;99.90
20658;DHT22;10488;50.846;4.078;2023-11-19T15:40:01;13.10;99.90
20658;DHT22;10488;50.846;4.078;2023-11-19T15:42:29;13.00;99.90
20658;DHT22;10488;50.846;4.078;2023-11-19T15:44:55;13.00;99.90
20658;DHT22;10488;50.846;4.078;2023-11-19T15:47:20;12.90;99.90